Tuesday, September 02, 2014
14:08 UTC
  |  Log In   |  Register Free
Airport Search:

Lincoln Airport
(KLNK)

FAA data valid effective July 24, 2014 until September 18, 2014 (unless otherwise noted).

 
 
 
 
 
 
 
 
 
 
 
 
 
 

Current Aviation Weather for Lincoln Airport (KLNK)

The most recent METAR observation for KLNK was updated at: 1254 UTC
METAR Summary (Translated METAR)
KLNK
021254Z 34005KT 10SM CLR 16/13 A3001 RMK AO2 SLP156 T01560128
KBIE
(33 nm SE from KLNK)
021255Z AUTO 31003KT 10SM CLR 14/14 A3002 RMK AO2 T01400136
TAF Summary (Translated TAF)
KLNK
021120Z 0212/0312 24005KT P6SM SKC FM030400 15008KT P6SM SCT060 BKN150
  Airport Weather Conditions for KLNK

 Current Weather at LNK
60° F
Fair
North winds at 5.8 mph
LNK NOAA Radar

Pressure: 30.01 in
Humidity: 84%
Wind: North at 5.8 MPH (5 KT)
Dew Point: 55.0°F
Visibility: 10.00 mi


Airport Weather Forecast for KLNK

Translated METAR and TAF for KLNK
Translated METAR for KLNK (1401 UTC 02 September 2014)
found at http://aviationweather.gov/adds/metars/
 
METAR text: KLNK 021354Z 17003KT 10SM CLR 17/14 A3003 RMK AO2 SLP161 T01720139
Conditions at: KLNK (LINCOLN , NE, US) observed 1354 UTC 02 September 2014
Temperature: 17.2°C (63°F)
Dewpoint: 13.9°C (57°F) [RH = 81%]
Pressure (altimeter): 30.03 inches Hg (1017.0 mb)
[Sea-level pressure: 1016.1 mb]
Winds: from the S (170 degrees) at 3 MPH (3 knots; 1.6 m/s)
Visibility: 10 or more miles (16+ km)
Ceiling: at least 12,000 feet AGL
Clouds: sky clear below 12,000 feet AGL
Weather: no significant weather observed at this time
Translated TAF for KLNK
Forecast for: KLNK (LINCOLN , NE, US)
TAF Text: KLNK 021120Z 0212/0312 24005KT P6SM SKC
Forecast period: 1200 UTC 02 September 2014 to 0400 UTC 03 September 2014
Forecast type: FROM: standard forecast or significant change
Winds: from the WSW (240 degrees) at 6 MPH (5 knots; 2.6 m/s)
Visibility: 6 or more miles (10+ km)
Clouds: clear skies
Weather: no significant weather forecast for this period
TAF Text: FM030400 15008KT P6SM SCT060 BKN150
Forecast period: 0400 to 1200 UTC 03 September 2014
Forecast type: FROM: standard forecast or significant change
Winds: from the SSE (150 degrees) at 9 MPH (8 knots; 4.2 m/s)
Visibility: 6 or more miles (10+ km)
Ceiling: 15000 feet AGL
Clouds: scattered clouds at 6000 feet AGL
broken clouds at 15000 feet AGL
Weather: no significant weather forecast for this period

Find All Airport Services Find A Hotel Find A Rental Car Find A Golf Course Find A Restaurant $100 Hamburger



FBO's on the Field
FBO Company Facility Photos Services Transportation Aviation Fuel Prices: Prices include tax
Catering Weather Repair Courtesy Rental Type 100LL JetA JetA+ MOGAS 8087
 
Duncan Aviation

This FBO has not yet been rated
FS:Avfuel
Last Updated: Aug-26
Login to update fuel prices
SS:
Contact Duncan AviationMore FBO Information
 
Silverhawk Aviation

This FBO has not yet been rated
FS:Phillips66
Last Updated: Aug-26
Login to update fuel prices
SS:
Contact Silverhawk AviationMore FBO Information
 
Add another FBO Facility Photos Catering Weather Repair Courtesy Rental Type 100LL JetA JetA+ MOGAS 8087
Services Transportation Aviation Fuel Prices: Prices include tax


GlobalAir.com Airport Resource Center model-print
model-print
model-print
model-print